sensor_id;sensor_type;location;lat;lon;timestamp;temperature;humidity
61455;DHT22;47319;0.000;0.000;2022-07-18T00:10:03;12.00;99.90
61455;DHT22;47319;0.000;0.000;2022-07-18T00:11:51;12.00;99.90
61455;DHT22;47319;0.000;0.000;2022-07-18T00:15:18;12.20;99.90
61455;DHT22;47319;0.000;0.000;2022-07-18T00:17:01;12.00;99.90
61455;DHT22;47319;0.000;0.000;2022-07-18T00:30:03;11.60;99.90
61455;DHT22;47319;0.000;0.000;2022-07-18T00:32:41;11.70;99.90
61455;DHT22;47319;0.000;0.000;2022-07-18T00:40:32;11.50;99.90
61455;DHT22;47319;0.000;0.000;2022-07-18T00:44:55;11.30;99.90
61455;DHT22;47319;0.000;0.000;2022-07-18T00:45:48;11.50;99.90
61455;DHT22;47319;0.000;0.000;2022-07-18T00:51:57;11.20;99.90
61455;DHT22;47319;0.000;0.000;2022-07-18T00:52:49;11.30;99.90
61455;DHT22;47319;0.000;0.000;2022-07-18T00:56:23;11.30;99.90
61455;DHT22;47319;0.000;0.000;2022-07-18T00:57:14;11.70;99.90
61455;DHT22;47319;0.000;0.000;2022-07-18T00:59:49;11.30;99.90
61455;DHT22;47319;0.000;0.000;2022-07-18T01:09:17;11.40;99.90
61455;DHT22;47319;0.000;0.000;2022-07-18T01:18:50;11.10;99.90
61455;DHT22;47319;0.000;0.000;2022-07-18T01:37:55;10.90;99.90
61455;DHT22;47319;0.000;0.000;2022-07-18T02:13:57;10.50;99.90
61455;DHT22;47319;0.000;0.000;2022-07-18T02:44:00;10.60;99.90
61455;DHT22;47319;0.000;0.000;2022-07-18T02:55:11;10.70;99.90
61455;DHT22;47319;0.000;0.000;2022-07-18T03:09:47;9.00;99.90
61455;DHT22;47319;0.000;0.000;2022-07-18T03:20:05;10.90;99.90
61455;DHT22;47319;0.000;0.000;2022-07-18T03:50:07;11.20;99.90
61455;DHT22;47319;0.000;0.000;2022-07-18T04:17:34;11.90;99.90
61455;DHT22;47319;0.000;0.000;2022-07-18T04:31:21;12.80;99.90
61455;DHT22;47319;0.000;0.000;2022-07-18T04:55:23;13.70;99.90
61455;DHT22;47319;0.000;0.000;2022-07-18T04:59:42;14.00;99.90
61455;DHT22;47319;0.000;0.000;2022-07-18T05:00:33;14.00;99.90
61455;DHT22;47319;0.000;0.000;2022-07-18T05:01:24;14.10;99.90
61455;DHT22;47319;0.000;0.000;2022-07-18T05:02:15;14.20;99.90
61455;DHT22;47319;0.000;0.000;2022-07-18T05:03:07;14.20;99.90
61455;DHT22;47319;0.000;0.000;2022-07-18T05:03:58;14.20;99.90
61455;DHT22;47319;0.000;0.000;2022-07-18T05:04:49;14.30;99.90
61455;DHT22;47319;0.000;0.000;2022-07-18T05:05:40;14.30;99.90
61455;DHT22;47319;0.000;0.000;2022-07-18T05:06:31;14.30;99.90
61455;DHT22;47319;0.000;0.000;2022-07-18T05:07:23;14.30;99.90
61455;DHT22;47319;0.000;0.000;2022-07-18T05:08:14;14.30;99.90
61455;DHT22;47319;0.000;0.000;2022-07-18T05:09:05;14.30;99.90
61455;DHT22;47319;0.000;0.000;2022-07-18T05:09:56;14.30;99.90
61455;DHT22;47319;0.000;0.000;2022-07-18T05:10:47;14.40;99.90
61455;DHT22;47319;0.000;0.000;2022-07-18T05:11:39;14.40;99.90
61455;DHT22;47319;0.000;0.000;2022-07-18T05:12:31;14.50;99.90
61455;DHT22;47319;0.000;0.000;2022-07-18T05:15:06;14.80;99.90
61455;DHT22;47319;0.000;0.000;2022-07-18T05:17:41;14.80;99.90
61455;DHT22;47319;0.000;0.000;2022-07-18T06:35:50;19.00;94.90
61455;DHT22;47319;0.000;0.000;2022-07-18T06:36:41;19.20;95.30
61455;DHT22;47319;0.000;0.000;2022-07-18T06:37:32;19.20;94.50
61455;DHT22;47319;0.000;0.000;2022-07-18T06:38:24;19.20;94.50
61455;DHT22;47319;0.000;0.000;2022-07-18T06:39:15;19.30;94.30
61455;DHT22;47319;0.000;0.000;2022-07-18T06:40:07;19.30;93.20
61455;DHT22;47319;0.000;0.000;2022-07-18T06:40:58;19.30;92.20
61455;DHT22;47319;0.000;0.000;2022-07-18T06:41:50;19.20;92.40
61455;DHT22;47319;0.000;0.000;2022-07-18T06:42:41;19.20;92.70
61455;DHT22;47319;0.000;0.000;2022-07-18T06:43:32;19.20;93.30
61455;DHT22;47319;0.000;0.000;2022-07-18T06:44:23;19.30;93.30
61455;DHT22;47319;0.000;0.000;2022-07-18T06:45:16;19.30;92.20
61455;DHT22;47319;0.000;0.000;2022-07-18T06:49:33;19.50;99.90
61455;DHT22;47319;0.000;0.000;2022-07-18T06:50:24;19.50;91.40
61455;DHT22;47319;0.000;0.000;2022-07-18T07:05:51;20.50;85.90
61455;DHT22;47319;0.000;0.000;2022-07-18T07:06:42;20.80;93.40
61455;DHT22;47319;0.000;0.000;2022-07-18T07:10:08;20.90;84.20
61455;DHT22;47319;0.000;0.000;2022-07-18T07:12:43;21.10;82.90
61455;DHT22;47319;0.000;0.000;2022-07-18T07:15:19;21.10;81.30
61455;DHT22;47319;0.000;0.000;2022-07-18T07:16:12;21.00;82.90
61455;DHT22;47319;0.000;0.000;2022-07-18T07:20:29;21.40;95.40
61455;DHT22;47319;0.000;0.000;2022-07-18T07:25:38;21.80;74.30
61455;DHT22;47319;0.000;0.000;2022-07-18T07:28:12;22.10;96.10
61455;DHT22;47319;0.000;0.000;2022-07-18T07:35:09;22.40;72.90
61455;DHT22;47319;0.000;0.000;2022-07-18T07:55:06;22.80;73.80
61455;DHT22;47319;0.000;0.000;2022-07-18T08:28:02;24.30;59.80
61455;DHT22;47319;0.000;0.000;2022-07-18T08:53:53;24.70;52.30
61455;DHT22;47319;0.000;0.000;2022-07-18T08:54:45;24.90;50.60
61455;DHT22;47319;0.000;0.000;2022-07-18T08:55:36;24.90;49.70
61455;DHT22;47319;0.000;0.000;2022-07-18T08:56:27;24.90;50.00
61455;DHT22;47319;0.000;0.000;2022-07-18T08:57:18;24.90;50.40
61455;DHT22;47319;0.000;0.000;2022-07-18T08:58:10;24.90;51.00
61455;DHT22;47319;0.000;0.000;2022-07-18T08:59:02;25.00;51.40
61455;DHT22;47319;0.000;0.000;2022-07-18T08:59:53;25.10;50.20
61455;DHT22;47319;0.000;0.000;2022-07-18T09:00:45;25.10;50.10
61455;DHT22;47319;0.000;0.000;2022-07-18T09:10:50;25.20;52.90
61455;DHT22;47319;0.000;0.000;2022-07-18T09:16:21;25.50;53.70
61455;DHT22;47319;0.000;0.000;2022-07-18T09:17:15;25.70;48.80
61455;DHT22;47319;0.000;0.000;2022-07-18T09:25:18;25.90;50.20
61455;DHT22;47319;0.000;0.000;2022-07-18T09:31:22;26.00;58.80
61455;DHT22;47319;0.000;0.000;2022-07-18T09:47:00;26.50;47.00
61455;DHT22;47319;0.000;0.000;2022-07-18T09:55:45;26.80;45.40
61455;DHT22;47319;0.000;0.000;2022-07-18T10:09:32;27.10;54.10
61455;DHT22;47319;0.000;0.000;2022-07-18T10:13:00;27.50;53.10
61455;DHT22;47319;0.000;0.000;2022-07-18T10:13:52;27.50;52.00
61455;DHT22;47319;0.000;0.000;2022-07-18T10:14:44;27.50;49.70
61455;DHT22;47319;0.000;0.000;2022-07-18T10:21:40;28.00;50.10
61455;DHT22;47319;0.000;0.000;2022-07-18T10:22:35;28.10;51.50
61455;DHT22;47319;0.000;0.000;2022-07-18T10:26:12;28.40;51.10
61455;DHT22;47319;0.000;0.000;2022-07-18T10:27:14;28.30;41.30
61455;DHT22;47319;0.000;0.000;2022-07-18T10:39:16;27.40;46.50
61455;DHT22;47319;0.000;0.000;2022-07-18T10:40:21;27.40;43.10
61455;DHT22;47319;0.000;0.000;2022-07-18T10:42:20;27.90;42.80
61455;DHT22;47319;0.000;0.000;2022-07-18T10:43:37;27.80;48.80
61455;DHT22;47319;0.000;0.000;2022-07-18T10:44:32;27.40;41.90
61455;DHT22;47319;0.000;0.000;2022-07-18T10:45:42;27.60;42.70
61455;DHT22;47319;0.000;0.000;2022-07-18T10:47:03;27.60;42.20
61455;DHT22;47319;0.000;0.000;2022-07-18T10:48:51;28.40;67.40
61455;DHT22;47319;0.000;0.000;2022-07-18T10:50:06;27.50;67.10
61455;DHT22;47319;0.000;0.000;2022-07-18T10:51:01;28.20;57.80
61455;DHT22;47319;0.000;0.000;2022-07-18T10:52:59;29.10;67.50
61455;DHT22;47319;0.000;0.000;2022-07-18T10:54:12;29.30;60.90
61455;DHT22;47319;0.000;0.000;2022-07-18T10:55:37;29.20;40.20
61455;DHT22;47319;0.000;0.000;2022-07-18T10:57:08;28.90;39.00
61455;DHT22;47319;0.000;0.000;2022-07-18T11:01:54;28.90;42.40
61455;DHT22;47319;0.000;0.000;2022-07-18T11:02:47;29.00;41.50
61455;DHT22;47319;0.000;0.000;2022-07-18T11:04:32;29.30;40.70
61455;DHT22;47319;0.000;0.000;2022-07-18T11:06:54;29.40;42.10
61455;DHT22;47319;0.000;0.000;2022-07-18T11:08:18;29.40;39.20
61455;DHT22;47319;0.000;0.000;2022-07-18T11:11:10;29.60;41.50
61455;DHT22;47319;0.000;0.000;2022-07-18T11:13:28;29.20;37.90
61455;DHT22;47319;0.000;0.000;2022-07-18T11:17:09;30.30;37.60
61455;DHT22;47319;0.000;0.000;2022-07-18T11:18:03;30.40;37.30
61455;DHT22;47319;0.000;0.000;2022-07-18T11:19:17;30.40;37.90
61455;DHT22;47319;0.000;0.000;2022-07-18T11:20:24;29.80;36.90
61455;DHT22;47319;0.000;0.000;2022-07-18T11:21:16;29.30;37.00
61455;DHT22;47319;0.000;0.000;2022-07-18T11:22:08;29.60;37.20
61455;DHT22;47319;0.000;0.000;2022-07-18T11:26:29;30.60;50.00
61455;DHT22;47319;0.000;0.000;2022-07-18T11:27:20;30.80;37.20
61455;DHT22;47319;0.000;0.000;2022-07-18T11:28:12;30.80;37.40
61455;DHT22;47319;0.000;0.000;2022-07-18T11:29:04;30.80;36.50
61455;DHT22;47319;0.000;0.000;2022-07-18T11:29:56;30.80;36.00
61455;DHT22;47319;0.000;0.000;2022-07-18T11:30:59;30.80;35.30
61455;DHT22;47319;0.000;0.000;2022-07-18T11:31:52;30.70;35.80
61455;DHT22;47319;0.000;0.000;2022-07-18T11:32:44;30.80;35.60
61455;DHT22;47319;0.000;0.000;2022-07-18T11:33:36;30.80;35.90
61455;DHT22;47319;0.000;0.000;2022-07-18T11:34:28;30.60;35.70
61455;DHT22;47319;0.000;0.000;2022-07-18T11:35:23;30.80;36.30
61455;DHT22;47319;0.000;0.000;2022-07-18T11:36:16;30.70;36.60
61455;DHT22;47319;0.000;0.000;2022-07-18T11:37:07;30.50;36.90
61455;DHT22;47319;0.000;0.000;2022-07-18T11:38:04;30.50;36.80
61455;DHT22;47319;0.000;0.000;2022-07-18T11:38:57;30.60;36.60
61455;DHT22;47319;0.000;0.000;2022-07-18T11:39:48;30.80;35.90
61455;DHT22;47319;0.000;0.000;2022-07-18T11:40:49;30.60;36.00
61455;DHT22;47319;0.000;0.000;2022-07-18T11:41:42;30.50;36.50
61455;DHT22;47319;0.000;0.000;2022-07-18T11:42:37;30.70;35.60
61455;DHT22;47319;0.000;0.000;2022-07-18T11:43:28;30.30;35.40
61455;DHT22;47319;0.000;0.000;2022-07-18T11:44:20;30.60;36.80
61455;DHT22;47319;0.000;0.000;2022-07-18T11:45:13;31.10;36.80
61455;DHT22;47319;0.000;0.000;2022-07-18T11:46:06;31.30;36.80
61455;DHT22;47319;0.000;0.000;2022-07-18T11:47:02;31.50;35.80
61455;DHT22;47319;0.000;0.000;2022-07-18T11:47:53;31.50;35.40
61455;DHT22;47319;0.000;0.000;2022-07-18T11:48:46;31.70;34.80
61455;DHT22;47319;0.000;0.000;2022-07-18T11:49:38;31.90;34.60
61455;DHT22;47319;0.000;0.000;2022-07-18T11:50:37;31.40;33.90
61455;DHT22;47319;0.000;0.000;2022-07-18T11:51:34;30.80;34.70
61455;DHT22;47319;0.000;0.000;2022-07-18T11:52:25;30.90;35.20
61455;DHT22;47319;0.000;0.000;2022-07-18T11:53:16;30.60;35.60
61455;DHT22;47319;0.000;0.000;2022-07-18T11:54:09;30.70;35.80
61455;DHT22;47319;0.000;0.000;2022-07-18T11:55:00;30.80;36.20
61455;DHT22;47319;0.000;0.000;2022-07-18T11:55:53;30.60;35.40
61455;DHT22;47319;0.000;0.000;2022-07-18T11:56:47;30.70;36.30
61455;DHT22;47319;0.000;0.000;2022-07-18T11:57:38;31.00;35.50
61455;DHT22;47319;0.000;0.000;2022-07-18T11:58:35;30.40;35.40
61455;DHT22;47319;0.000;0.000;2022-07-18T11:59:35;30.60;35.90
61455;DHT22;47319;0.000;0.000;2022-07-18T12:00:26;30.90;36.30
61455;DHT22;47319;0.000;0.000;2022-07-18T12:01:18;31.30;36.00
61455;DHT22;47319;0.000;0.000;2022-07-18T12:02:10;31.10;36.30
61455;DHT22;47319;0.000;0.000;2022-07-18T12:03:01;31.20;35.70
61455;DHT22;47319;0.000;0.000;2022-07-18T12:03:52;31.20;36.00
61455;DHT22;47319;0.000;0.000;2022-07-18T12:04:44;31.60;36.20
61455;DHT22;47319;0.000;0.000;2022-07-18T12:05:36;31.80;36.20
61455;DHT22;47319;0.000;0.000;2022-07-18T12:06:28;32.20;35.70
61455;DHT22;47319;0.000;0.000;2022-07-18T12:07:20;32.60;35.20
61455;DHT22;47319;0.000;0.000;2022-07-18T12:08:31;32.30;33.90
61455;DHT22;47319;0.000;0.000;2022-07-18T12:09:26;32.30;34.00
61455;DHT22;47319;0.000;0.000;2022-07-18T12:10:17;32.60;34.40
61455;DHT22;47319;0.000;0.000;2022-07-18T12:11:11;32.30;34.10
61455;DHT22;47319;0.000;0.000;2022-07-18T12:12:09;32.10;34.50
61455;DHT22;47319;0.000;0.000;2022-07-18T12:13:01;32.20;34.80
61455;DHT22;47319;0.000;0.000;2022-07-18T12:13:54;32.10;34.30
61455;DHT22;47319;0.000;0.000;2022-07-18T12:14:56;31.60;34.60
61455;DHT22;47319;0.000;0.000;2022-07-18T12:15:47;31.80;34.90
61455;DHT22;47319;0.000;0.000;2022-07-18T12:16:40;31.80;34.70
61455;DHT22;47319;0.000;0.000;2022-07-18T12:17:42;31.80;34.70
61455;DHT22;47319;0.000;0.000;2022-07-18T12:18:34;31.70;34.40
61455;DHT22;47319;0.000;0.000;2022-07-18T12:19:33;31.70;35.50
61455;DHT22;47319;0.000;0.000;2022-07-18T12:20:24;32.00;35.60
61455;DHT22;47319;0.000;0.000;2022-07-18T12:21:16;32.20;34.40
61455;DHT22;47319;0.000;0.000;2022-07-18T12:22:08;31.80;35.20
61455;DHT22;47319;0.000;0.000;2022-07-18T12:23:06;31.80;34.70
61455;DHT22;47319;0.000;0.000;2022-07-18T12:23:58;31.30;35.70
61455;DHT22;47319;0.000;0.000;2022-07-18T12:25:07;31.50;35.60
61455;DHT22;47319;0.000;0.000;2022-07-18T12:25:58;31.80;35.60
61455;DHT22;47319;0.000;0.000;2022-07-18T12:28:14;32.00;34.70
61455;DHT22;47319;0.000;0.000;2022-07-18T12:29:07;31.80;35.20
61455;DHT22;47319;0.000;0.000;2022-07-18T12:31:00;32.10;35.60
61455;DHT22;47319;0.000;0.000;2022-07-18T12:31:51;32.30;35.00
61455;DHT22;47319;0.000;0.000;2022-07-18T12:32:47;31.90;35.60
61455;DHT22;47319;0.000;0.000;2022-07-18T12:33:38;32.30;35.50
61455;DHT22;47319;0.000;0.000;2022-07-18T12:34:29;32.10;35.20
61455;DHT22;47319;0.000;0.000;2022-07-18T12:35:23;31.40;35.30
61455;DHT22;47319;0.000;0.000;2022-07-18T12:36:15;30.90;35.80
61455;DHT22;47319;0.000;0.000;2022-07-18T12:37:06;30.60;36.30
61455;DHT22;47319;0.000;0.000;2022-07-18T12:37:58;30.80;37.10
61455;DHT22;47319;0.000;0.000;2022-07-18T12:38:59;30.70;37.00
61455;DHT22;47319;0.000;0.000;2022-07-18T12:39:56;30.70;36.50
61455;DHT22;47319;0.000;0.000;2022-07-18T12:40:48;30.40;36.90
61455;DHT22;47319;0.000;0.000;2022-07-18T12:41:39;30.40;37.40
61455;DHT22;47319;0.000;0.000;2022-07-18T12:42:32;30.60;37.50
61455;DHT22;47319;0.000;0.000;2022-07-18T12:43:27;31.00;37.10
61455;DHT22;47319;0.000;0.000;2022-07-18T12:44:19;31.10;36.80
61455;DHT22;47319;0.000;0.000;2022-07-18T12:45:11;31.40;36.90
61455;DHT22;47319;0.000;0.000;2022-07-18T12:46:05;31.50;36.10
61455;DHT22;47319;0.000;0.000;2022-07-18T12:46:57;31.40;36.00
61455;DHT22;47319;0.000;0.000;2022-07-18T12:47:48;31.70;36.00
61455;DHT22;47319;0.000;0.000;2022-07-18T12:48:39;31.90;35.20
61455;DHT22;47319;0.000;0.000;2022-07-18T12:49:30;32.10;35.70
61455;DHT22;47319;0.000;0.000;2022-07-18T12:50:22;31.80;35.40
61455;DHT22;47319;0.000;0.000;2022-07-18T12:51:13;31.80;35.50
61455;DHT22;47319;0.000;0.000;2022-07-18T12:52:04;31.70;35.70
61455;DHT22;47319;0.000;0.000;2022-07-18T12:52:56;31.60;36.70
61455;DHT22;47319;0.000;0.000;2022-07-18T12:56:22;32.40;39.10
61455;DHT22;47319;0.000;0.000;2022-07-18T12:57:13;32.30;35.60
61455;DHT22;47319;0.000;0.000;2022-07-18T12:58:04;32.40;35.30
61455;DHT22;47319;0.000;0.000;2022-07-18T12:58:57;32.40;34.70
61455;DHT22;47319;0.000;0.000;2022-07-18T12:59:48;32.20;34.70
61455;DHT22;47319;0.000;0.000;2022-07-18T13:00:40;32.20;34.50
61455;DHT22;47319;0.000;0.000;2022-07-18T13:01:31;31.90;35.40
61455;DHT22;47319;0.000;0.000;2022-07-18T13:02:23;32.10;34.90
61455;DHT22;47319;0.000;0.000;2022-07-18T13:03:14;31.80;36.10
61455;DHT22;47319;0.000;0.000;2022-07-18T13:04:05;31.70;36.20
61455;DHT22;47319;0.000;0.000;2022-07-18T13:04:57;32.00;35.60
61455;DHT22;47319;0.000;0.000;2022-07-18T13:05:48;32.40;35.50
61455;DHT22;47319;0.000;0.000;2022-07-18T13:06:39;32.80;35.70
61455;DHT22;47319;0.000;0.000;2022-07-18T13:07:30;32.60;34.40
61455;DHT22;47319;0.000;0.000;2022-07-18T13:08:22;32.20;35.10
61455;DHT22;47319;0.000;0.000;2022-07-18T13:09:13;32.20;35.20
61455;DHT22;47319;0.000;0.000;2022-07-18T13:10:05;32.20;35.40
61455;DHT22;47319;0.000;0.000;2022-07-18T13:10:57;31.70;35.80
61455;DHT22;47319;0.000;0.000;2022-07-18T13:11:49;31.40;35.70
61455;DHT22;47319;0.000;0.000;2022-07-18T13:12:40;31.60;35.80
61455;DHT22;47319;0.000;0.000;2022-07-18T13:13:31;31.80;35.60
61455;DHT22;47319;0.000;0.000;2022-07-18T13:14:24;32.00;35.50
61455;DHT22;47319;0.000;0.000;2022-07-18T13:15:15;32.30;35.20
61455;DHT22;47319;0.000;0.000;2022-07-18T13:16:07;32.00;35.40
61455;DHT22;47319;0.000;0.000;2022-07-18T13:16:58;31.50;36.10
61455;DHT22;47319;0.000;0.000;2022-07-18T13:17:49;31.40;37.10
61455;DHT22;47319;0.000;0.000;2022-07-18T13:18:41;31.70;36.80
61455;DHT22;47319;0.000;0.000;2022-07-18T13:19:34;31.80;35.60
61455;DHT22;47319;0.000;0.000;2022-07-18T13:20:26;31.90;35.80
61455;DHT22;47319;0.000;0.000;2022-07-18T13:21:17;31.90;36.20
61455;DHT22;47319;0.000;0.000;2022-07-18T13:22:08;32.10;36.60
61455;DHT22;47319;0.000;0.000;2022-07-18T13:23:00;32.60;36.00
61455;DHT22;47319;0.000;0.000;2022-07-18T13:23:51;32.80;35.50
61455;DHT22;47319;0.000;0.000;2022-07-18T13:24:42;32.90;35.00
61455;DHT22;47319;0.000;0.000;2022-07-18T13:25:33;32.80;34.50
61455;DHT22;47319;0.000;0.000;2022-07-18T13:26:24;32.40;34.80
61455;DHT22;47319;0.000;0.000;2022-07-18T13:27:16;31.90;36.00
61455;DHT22;47319;0.000;0.000;2022-07-18T13:28:10;31.90;35.90
61455;DHT22;47319;0.000;0.000;2022-07-18T13:29:02;31.50;35.40
61455;DHT22;47319;0.000;0.000;2022-07-18T13:29:54;30.70;36.10
61455;DHT22;47319;0.000;0.000;2022-07-18T13:30:45;30.70;36.50
61455;DHT22;47319;0.000;0.000;2022-07-18T13:31:37;30.90;36.60
61455;DHT22;47319;0.000;0.000;2022-07-18T13:32:28;30.90;36.70
61455;DHT22;47319;0.000;0.000;2022-07-18T13:33:19;30.50;37.20
61455;DHT22;47319;0.000;0.000;2022-07-18T13:34:11;30.70;37.40
61455;DHT22;47319;0.000;0.000;2022-07-18T13:35:03;30.90;37.40
61455;DHT22;47319;0.000;0.000;2022-07-18T13:35:54;31.10;36.70
61455;DHT22;47319;0.000;0.000;2022-07-18T13:36:46;31.30;36.20
61455;DHT22;47319;0.000;0.000;2022-07-18T13:37:38;31.40;36.00
61455;DHT22;47319;0.000;0.000;2022-07-18T13:38:29;31.60;36.50
61455;DHT22;47319;0.000;0.000;2022-07-18T13:39:20;32.00;36.20
61455;DHT22;47319;0.000;0.000;2022-07-18T13:40:13;32.30;36.30
61455;DHT22;47319;0.000;0.000;2022-07-18T13:41:04;32.10;36.00
61455;DHT22;47319;0.000;0.000;2022-07-18T13:41:55;32.00;35.40
61455;DHT22;47319;0.000;0.000;2022-07-18T13:42:49;32.10;35.40
61455;DHT22;47319;0.000;0.000;2022-07-18T13:43:41;32.00;35.80
61455;DHT22;47319;0.000;0.000;2022-07-18T13:44:33;32.10;36.50
61455;DHT22;47319;0.000;0.000;2022-07-18T13:45:25;32.20;35.30
61455;DHT22;47319;0.000;0.000;2022-07-18T13:46:17;32.30;35.50
61455;DHT22;47319;0.000;0.000;2022-07-18T13:47:11;31.90;35.40
61455;DHT22;47319;0.000;0.000;2022-07-18T13:48:03;32.10;35.90
61455;DHT22;47319;0.000;0.000;2022-07-18T13:48:54;32.00;35.50
61455;DHT22;47319;0.000;0.000;2022-07-18T13:49:45;31.90;35.90
61455;DHT22;47319;0.000;0.000;2022-07-18T13:50:39;32.00;35.70
61455;DHT22;47319;0.000;0.000;2022-07-18T13:51:30;31.50;35.70
61455;DHT22;47319;0.000;0.000;2022-07-18T13:52:21;31.80;35.80
61455;DHT22;47319;0.000;0.000;2022-07-18T13:53:13;32.10;35.60
61455;DHT22;47319;0.000;0.000;2022-07-18T13:54:04;32.20;35.00
61455;DHT22;47319;0.000;0.000;2022-07-18T13:54:55;32.20;35.20
61455;DHT22;47319;0.000;0.000;2022-07-18T13:55:49;32.60;35.50
61455;DHT22;47319;0.000;0.000;2022-07-18T13:56:40;32.70;35.30
61455;DHT22;47319;0.000;0.000;2022-07-18T13:57:31;32.70;35.00
61455;DHT22;47319;0.000;0.000;2022-07-18T13:58:23;32.80;35.30
61455;DHT22;47319;0.000;0.000;2022-07-18T13:59:14;32.70;34.80
61455;DHT22;47319;0.000;0.000;2022-07-18T14:00:07;32.50;34.80
61455;DHT22;47319;0.000;0.000;2022-07-18T14:01:02;32.00;34.80
61455;DHT22;47319;0.000;0.000;2022-07-18T14:01:54;31.90;35.20
61455;DHT22;47319;0.000;0.000;2022-07-18T14:02:45;31.80;35.80
61455;DHT22;47319;0.000;0.000;2022-07-18T14:03:36;31.90;35.30
61455;DHT22;47319;0.000;0.000;2022-07-18T14:04:27;31.90;35.20
61455;DHT22;47319;0.000;0.000;2022-07-18T14:05:19;32.30;35.20
61455;DHT22;47319;0.000;0.000;2022-07-18T14:06:10;32.50;35.40
61455;DHT22;47319;0.000;0.000;2022-07-18T14:07:02;32.70;35.70
61455;DHT22;47319;0.000;0.000;2022-07-18T14:07:53;33.10;34.20
61455;DHT22;47319;0.000;0.000;2022-07-18T14:08:44;33.30;33.70
61455;DHT22;47319;0.000;0.000;2022-07-18T14:09:35;33.30;33.50
61455;DHT22;47319;0.000;0.000;2022-07-18T14:10:26;33.50;33.70
61455;DHT22;47319;0.000;0.000;2022-07-18T14:11:18;33.60;34.70
61455;DHT22;47319;0.000;0.000;2022-07-18T14:12:09;33.60;34.30
61455;DHT22;47319;0.000;0.000;2022-07-18T14:13:00;33.60;33.30
61455;DHT22;47319;0.000;0.000;2022-07-18T14:13:53;33.50;33.30
61455;DHT22;47319;0.000;0.000;2022-07-18T14:14:45;33.30;33.00
61455;DHT22;47319;0.000;0.000;2022-07-18T14:15:36;33.20;33.40
61455;DHT22;47319;0.000;0.000;2022-07-18T14:16:29;33.00;33.80
61455;DHT22;47319;0.000;0.000;2022-07-18T14:17:23;33.20;34.60
61455;DHT22;47319;0.000;0.000;2022-07-18T14:18:14;33.40;33.50
61455;DHT22;47319;0.000;0.000;2022-07-18T14:19:05;33.40;33.70
61455;DHT22;47319;0.000;0.000;2022-07-18T14:19:56;32.80;33.70
61455;DHT22;47319;0.000;0.000;2022-07-18T14:20:48;32.70;34.80
61455;DHT22;47319;0.000;0.000;2022-07-18T14:21:39;32.70;34.90
61455;DHT22;47319;0.000;0.000;2022-07-18T14:22:30;32.50;34.70
61455;DHT22;47319;0.000;0.000;2022-07-18T14:23:21;32.70;35.00
61455;DHT22;47319;0.000;0.000;2022-07-18T14:24:12;32.00;34.70
61455;DHT22;47319;0.000;0.000;2022-07-18T14:25:04;31.80;34.80
61455;DHT22;47319;0.000;0.000;2022-07-18T14:25:56;32.00;35.40
61455;DHT22;47319;0.000;0.000;2022-07-18T14:26:47;32.10;34.70
61455;DHT22;47319;0.000;0.000;2022-07-18T14:27:39;31.90;35.20
61455;DHT22;47319;0.000;0.000;2022-07-18T14:28:30;31.90;35.50
61455;DHT22;47319;0.000;0.000;2022-07-18T14:29:21;32.50;35.90
61455;DHT22;47319;0.000;0.000;2022-07-18T14:30:13;32.70;35.20
61455;DHT22;47319;0.000;0.000;2022-07-18T14:31:05;32.40;35.10
61455;DHT22;47319;0.000;0.000;2022-07-18T14:31:58;32.20;35.00
61455;DHT22;47319;0.000;0.000;2022-07-18T14:32:49;32.00;34.90
61455;DHT22;47319;0.000;0.000;2022-07-18T14:33:40;31.60;35.10
61455;DHT22;47319;0.000;0.000;2022-07-18T14:34:32;31.70;35.40
61455;DHT22;47319;0.000;0.000;2022-07-18T14:35:24;32.00;36.10
61455;DHT22;47319;0.000;0.000;2022-07-18T14:36:15;32.50;35.80
61455;DHT22;47319;0.000;0.000;2022-07-18T14:37:06;32.50;35.30
61455;DHT22;47319;0.000;0.000;2022-07-18T14:37:57;32.10;34.50
61455;DHT22;47319;0.000;0.000;2022-07-18T14:38:48;32.00;34.60
61455;DHT22;47319;0.000;0.000;2022-07-18T14:39:40;32.10;34.60
61455;DHT22;47319;0.000;0.000;2022-07-18T14:40:31;32.20;35.20
61455;DHT22;47319;0.000;0.000;2022-07-18T14:41:22;32.50;34.40
61455;DHT22;47319;0.000;0.000;2022-07-18T14:42:13;32.50;34.50
61455;DHT22;47319;0.000;0.000;2022-07-18T14:43:05;32.90;34.80
61455;DHT22;47319;0.000;0.000;2022-07-18T14:43:56;33.30;34.60
61455;DHT22;47319;0.000;0.000;2022-07-18T14:44:47;33.30;33.30
61455;DHT22;47319;0.000;0.000;2022-07-18T14:45:38;33.50;33.50
61455;DHT22;47319;0.000;0.000;2022-07-18T14:46:29;33.70;33.50
61455;DHT22;47319;0.000;0.000;2022-07-18T14:47:22;33.90;33.60
61455;DHT22;47319;0.000;0.000;2022-07-18T14:48:13;33.90;32.60
61455;DHT22;47319;0.000;0.000;2022-07-18T14:49:04;33.60;33.00
61455;DHT22;47319;0.000;0.000;2022-07-18T14:49:55;33.50;33.40
61455;DHT22;47319;0.000;0.000;2022-07-18T14:50:47;32.50;33.90
61455;DHT22;47319;0.000;0.000;2022-07-18T14:51:38;32.50;34.10
61455;DHT22;47319;0.000;0.000;2022-07-18T14:52:29;32.40;34.20
61455;DHT22;47319;0.000;0.000;2022-07-18T14:53:20;32.00;34.80
61455;DHT22;47319;0.000;0.000;2022-07-18T14:54:11;31.80;35.50
61455;DHT22;47319;0.000;0.000;2022-07-18T14:55:03;31.80;35.50
61455;DHT22;47319;0.000;0.000;2022-07-18T14:55:55;31.70;35.80
61455;DHT22;47319;0.000;0.000;2022-07-18T14:56:46;31.80;36.20
61455;DHT22;47319;0.000;0.000;2022-07-18T14:57:38;31.70;36.00
61455;DHT22;47319;0.000;0.000;2022-07-18T14:58:29;31.20;35.70
61455;DHT22;47319;0.000;0.000;2022-07-18T14:59:21;31.20;35.90
61455;DHT22;47319;0.000;0.000;2022-07-18T15:00:13;31.30;36.20
61455;DHT22;47319;0.000;0.000;2022-07-18T15:01:04;31.70;36.30
61455;DHT22;47319;0.000;0.000;2022-07-18T15:01:55;32.00;36.30
61455;DHT22;47319;0.000;0.000;2022-07-18T15:02:48;31.80;35.90
61455;DHT22;47319;0.000;0.000;2022-07-18T15:03:39;31.80;35.70
61455;DHT22;47319;0.000;0.000;2022-07-18T15:04:30;31.80;35.70
61455;DHT22;47319;0.000;0.000;2022-07-18T15:05:21;32.00;35.40
61455;DHT22;47319;0.000;0.000;2022-07-18T15:06:13;32.20;35.50
61455;DHT22;47319;0.000;0.000;2022-07-18T15:07:04;32.30;35.00
61455;DHT22;47319;0.000;0.000;2022-07-18T15:07:55;32.30;35.80
61455;DHT22;47319;0.000;0.000;2022-07-18T15:08:46;32.40;34.60
61455;DHT22;47319;0.000;0.000;2022-07-18T15:09:38;32.40;34.40
61455;DHT22;47319;0.000;0.000;2022-07-18T15:10:29;32.50;35.00
61455;DHT22;47319;0.000;0.000;2022-07-18T15:11:20;31.70;35.20
61455;DHT22;47319;0.000;0.000;2022-07-18T15:12:11;32.00;35.40
61455;DHT22;47319;0.000;0.000;2022-07-18T15:13:02;32.20;35.70
61455;DHT22;47319;0.000;0.000;2022-07-18T15:13:55;32.50;35.40
61455;DHT22;47319;0.000;0.000;2022-07-18T15:14:46;32.70;34.90
61455;DHT22;47319;0.000;0.000;2022-07-18T15:15:37;32.80;34.60
61455;DHT22;47319;0.000;0.000;2022-07-18T15:16:28;32.90;34.30
61455;DHT22;47319;0.000;0.000;2022-07-18T15:17:20;33.00;33.90
61455;DHT22;47319;0.000;0.000;2022-07-18T15:18:12;32.60;34.20
61455;DHT22;47319;0.000;0.000;2022-07-18T15:19:03;32.50;34.70
61455;DHT22;47319;0.000;0.000;2022-07-18T15:19:54;32.70;34.60
61455;DHT22;47319;0.000;0.000;2022-07-18T15:20:46;32.60;34.20